No.1 Daieimaru — JD2847 — position and weather

sailwx.info

Track history (hours):
 
Tides and Currents Weather Stations Pressure Air Temp Water Temp Dewpoint Dewpoint Depression Visibility Wind Speed Wind Dir Waves Ship Positions

No.1 Daieimaru

Last reported at 2017-Dec-11 16:34 UTC. Time now 2017-Dec-14 16:47 UTC.
Position N 33°53' E 132°05'.

Length 63 m; draft 4.2 m.

MMSI: 431000816.

Date/timePositionNaut miles runAvg speedWind from/ knotsBaromVisibWave heightAir tempDewpointWater temp
2017-Dec-11 16:34N 33°53' E 132°05'0 0.0
2017-Dec-11 14:49N 33°53' E 132°05'0 0.0
2017-Dec-11 14:03N 33°53' E 132°05'0 0.0
2017-Dec-11 13:06N 33°53' E 132°05'0 0.0
2017-Dec-11 12:57N 33°53' E 132°05'0 0.0
2017-Dec-11 09:44N 33°53' E 132°05'0 0.0
2017-Dec-11 09:14N 33°53' E 132°05'0 0.1
2017-Dec-11 08:59N 33°53' E 132°05'0 0.0
2017-Dec-11 08:16N 33°53' E 132°05'0 0.0
2017-Dec-11 07:59N 33°53' E 132°05'0 0.0
2017-Dec-11 07:24N 33°53' E 132°05'0 0.0
2017-Dec-11 06:58N 33°53' E 132°05'0 0.0
2017-Dec-11 06:28N 33°53' E 132°05'0 0.0
2017-Dec-11 05:28N 33°53' E 132°05'0 0.0
2017-Dec-11 05:00N 33°53' E 132°05'0 0.0
2017-Dec-11 04:20N 33°53' E 132°05'0 0.0
2017-Dec-11 03:55N 33°53' E 132°05'0 0.0
2017-Dec-11 03:30N 33°53' E 132°05'0 0.0
2017-Dec-11 02:56N 33°53' E 132°05'0 0.0
2017-Dec-11 02:28N 33°53' E 132°05'0 0.0
2017-Dec-11 01:31N 33°53' E 132°05'0 0.1
2017-Dec-11 01:17N 33°53' E 132°05'0 0.0
2017-Dec-10 23:58N 33°53' E 132°05'0 0.0
2017-Dec-10 23:28N 33°53' E 132°05'0 0.0
2017-Dec-10 22:09N 33°53' E 132°05'0 0.1
2017-Dec-10 21:59N 33°53' E 132°05'0 0.0
2017-Dec-10 21:28N 33°53' E 132°05'0 0.0
2017-Dec-10 20:57N 33°53' E 132°05'0 0.0
2017-Dec-10 20:24N 33°53' E 132°05'0 0.0
2017-Dec-10 19:55N 33°53' E 132°05'0 0.0
2017-Dec-10 19:16N 33°53' E 132°05'0 0.1
2017-Dec-10 18:58N 33°53' E 132°05'0 0.0
2017-Dec-10 18:18N 33°53' E 132°05'0 0.0
2017-Dec-10 18:00N 33°53' E 132°05'0 0.0
2017-Dec-10 17:25N 33°53' E 132°05'0 0.0
2017-Dec-10 16:49N 33°53' E 132°05'0 0.1
2017-Dec-10 16:28N 33°53' E 132°04'0 0.1
2017-Dec-10 15:48N 33°53' E 132°05'0 0.0
2017-Dec-10 15:21N 33°53' E 132°05'0 0.0
2017-Dec-10 14:57N 33°53' E 132°05'0 0.0
2017-Dec-10 14:21N 33°53' E 132°05'0 0.0
2017-Dec-10 14:00N 33°53' E 132°05'0 0.0
2017-Dec-10 13:30N 33°53' E 132°05'0 0.0
2017-Dec-10 12:59N 33°53' E 132°05'0 0.0
2017-Dec-10 12:30N 33°53' E 132°05'0 0.0
2017-Dec-10 12:00N 33°53' E 132°05'0 0.0
2017-Dec-10 11:28N 33°53' E 132°05'0 0.1
2017-Dec-10 10:59N 33°53' E 132°04'0 0.1
2017-Dec-10 10:30N 33°53' E 132°05'6 4.8
2017-Dec-10 09:19N 33°50' E 131°58'410.9
2017-Dec-10 08:56N 33°51' E 131°53'511.1
2017-Dec-10 08:30N 33°51' E 131°47'510.9
2017-Dec-10 08:00N 33°52' E 131°41'611.1
2017-Dec-10 07:30N 33°52' E 131°34'511.1
2017-Dec-10 07:00N 33°52' E 131°28'510.9
2017-Dec-10 06:30N 33°52' E 131°21'510.8
2017-Dec-10 06:00N 33°52' E 131°15'510.5
2017-Dec-10 05:30N 33°54' E 131°09'510.1
2017-Dec-10 05:00N 33°56' E 131°03'4 8.3
2017-Dec-10 04:30N 33°58' E 130°59'4 8.0
2017-Dec-10 04:00N 33°55' E 130°56'4 7.1
2017-Dec-10 03:31N 33°56' E 130°52'3 5.3
2017-Dec-10 03:00N 33°54' E 130°49'0 0.1
2017-Dec-10 02:30N 33°54' E 130°49'0 0.0
2017-Dec-10 02:00N 33°54' E 130°49'0 0.0
2017-Dec-10 01:30N 33°54' E 130°49'0 0.0
2017-Dec-10 01:00N 33°54' E 130°49'0 0.1
2017-Dec-10 00:30N 33°54' E 130°49'0 0.0
2017-Dec-10 00:00N 33°54' E 130°49'0 0.1
2017-Dec-09 23:30N 33°54' E 130°49'0 0.0
2017-Dec-09 23:00N 33°54' E 130°49'0 0.1
2017-Dec-09 22:30N 33°54' E 130°49'2 4.2
2017-Dec-09 22:00N 33°56' E 130°51'0 0.0
2017-Dec-09 21:30N 33°56' E 130°51'0 0.0
2017-Dec-09 21:00N 33°56' E 130°51'0 0.0
2017-Dec-09 20:30N 33°56' E 130°51'0 0.0
2017-Dec-09 20:00N 33°56' E 130°51'0 0.1
2017-Dec-09 19:30N 33°56' E 130°51'0 0.0
2017-Dec-09 19:00N 33°56' E 130°51'0 0.0
2017-Dec-09 18:30N 33°56' E 130°51'0 0.0
2017-Dec-09 18:00N 33°56' E 130°51'0 0.0
2017-Dec-09 17:30N 33°56' E 130°51'0 0.0
2017-Dec-09 17:00N 33°56' E 130°51'0 0.0
2017-Dec-09 16:30N 33°56' E 130°51'0 0.0
2017-Dec-09 16:00N 33°56' E 130°51'0 0.1
2017-Dec-09 15:30N 33°56' E 130°51'1 2.8
2017-Dec-09 15:00N 33°56' E 130°53'4 7.4
2017-Dec-09 14:30N 33°57' E 130°57'5 9.1
2017-Dec-09 14:00N 33°58' E 131°02'612.2
2017-Dec-09 13:30N 33°55' E 131°08'612.1
2017-Dec-09 13:00N 33°52' E 131°15'612.3
2017-Dec-09 12:31N 33°51' E 131°22'612.2
2017-Dec-09 12:00N 33°50' E 131°30'612.3
2017-Dec-09 11:30N 33°49' E 131°37'612.0
2017-Dec-09 11:00N 33°48' E 131°44'611.9
2017-Dec-09 10:30N 33°47' E 131°51'811.9
2017-Dec-09 09:49N 33°46' E 132°01'1112.3
2017-Dec-09 08:55N 33°50' E 132°13'2111.9
2017-Dec-09 07:10N 34°00' E 132°35'211.6
2017-Dec-09 07:00N 34°01' E 132°37'611.6
2017-Dec-09 06:30N 34°05' E 132°42'7110.2
2017-Dec-08 23:31N 34°27' E 134°04'1610.8
2017-Dec-08 22:02N 34°26' E 134°23'011.4
2017-Dec-08 22:00N 34°26' E 134°23'611.4
2017-Dec-08 21:30N 34°28' E 134°30'611.5
2017-Dec-08 21:00N 34°30' E 134°36'611.4
2017-Dec-08 20:30N 34°32' E 134°43'511.0
2017-Dec-08 20:00N 34°34' E 134°49'510.1
2017-Dec-08 19:31N 34°36' E 134°55'510.3
2017-Dec-08 19:00N 34°38' E 135°01'510.3
2017-Dec-08 18:31N 34°36' E 135°06'611.6
2017-Dec-08 18:00N 34°36' E 135°13'612.0
2017-Dec-08 17:31N 34°38' E 135°20'510.4
2017-Dec-08 17:00N 34°38' E 135°27'1 1.1
2017-Dec-08 16:31N 34°38' E 135°27'0 0.0
2017-Dec-08 16:01N 34°38' E 135°27'0 0.0
2017-Dec-08 15:30N 34°38' E 135°27'0 0.0
2017-Dec-08 15:01N 34°38' E 135°27'0 0.0
2017-Dec-08 14:30N 34°38' E 135°27'0 0.0
2017-Dec-08 14:01N 34°38' E 135°27'0 0.0
2017-Dec-08 13:31N 34°38' E 135°27'0 0.0
2017-Dec-08 13:00N 34°38' E 135°27'0 0.6
2017-Dec-08 12:31N 34°38' E 135°27'0 0.0
2017-Dec-08 12:01N 34°38' E 135°27'0 0.0
2017-Dec-08 11:31N 34°38' E 135°27'0 0.0
2017-Dec-08 11:01N 34°38' E 135°27'0 0.1
2017-Dec-08 10:30N 34°38' E 135°27'0 0.0
2017-Dec-08 10:00N 34°38' E 135°27'0 0.0
2017-Dec-08 09:31N 34°38' E 135°27'0 0.0
2017-Dec-08 09:01N 34°38' E 135°27'0 0.0
2017-Dec-08 08:30N 34°38' E 135°27'0 0.0
2017-Dec-08 08:00N 34°38' E 135°27'0 0.0
2017-Dec-08 07:30N 34°38' E 135°27'0 0.0
2017-Dec-08 07:00N 34°38' E 135°27'0 0.0
2017-Dec-08 06:31N 34°38' E 135°27'0 0.0
2017-Dec-08 06:00N 34°38' E 135°27'0 0.0
2017-Dec-08 05:30N 34°38' E 135°27'0 0.0
2017-Dec-08 05:00N 34°38' E 135°27'0 0.1
2017-Dec-08 04:31N 34°38' E 135°27'0 0.1
2017-Dec-08 04:01N 34°38' E 135°27'2 3.1
2017-Dec-08 03:30N 34°39' E 135°25'510.2
2017-Dec-08 03:00N 34°35' E 135°21'511.0
2017-Dec-08 02:30N 34°31' E 135°16'611.2
2017-Dec-08 02:00N 34°27' E 135°12'611.6
2017-Dec-08 01:30N 34°22' E 135°08'611.5
2017-Dec-08 01:00N 34°18' E 135°04'611.0
2017-Dec-08 00:30N 34°12' E 135°03'510.9
2017-Dec-08 00:01N 34°07' E 135°02'510.5
2017-Dec-07 23:30N 34°02' E 135°02'610.4
2017-Dec-07 22:58N 33°56' E 135°02'163 8.5
2017-Dec-07 03:41N 34°34' E 138°14'210.6
2017-Dec-07 03:30N 34°34' E 138°16'710.2
2017-Dec-07 02:47N 34°35' E 138°25'4 9.6
2017-Dec-07 02:23N 34°35' E 138°30'4 9.5
2017-Dec-07 01:58N 34°35' E 138°35'12 9.3
2017-Dec-07 00:42N 34°35' E 138°49'1210.2
2017-Dec-06 23:34N 34°40' E 139°01'110.6
2017-Dec-06 23:30N 34°41' E 139°02'610.4
2017-Dec-06 22:54N 34°46' E 139°06'1710.3
2017-Dec-06 21:13N 34°57' E 139°23'2 9.0
2017-Dec-06 20:58N 34°58' E 139°25'  
2017-Dec-04 02:56N 33°54' E 134°60'511.1
2017-Dec-04 02:30N 33°58' E 134°56'611.1
2017-Dec-04 02:00N 34°02' E 134°52'611.3
2017-Dec-04 01:30N 34°06' E 134°47'811.2
2017-Dec-04 00:49N 34°12' E 134°41'510.8
2017-Dec-04 00:20N 34°16' E 134°37'2 4.1
2017-Dec-03 23:46N 34°15' E 134°34'0 0.2
2017-Dec-03 23:30N 34°15' E 134°34'0 0.4
2017-Dec-03 22:14N 34°15' E 134°33'0 0.4
2017-Dec-03 21:57N 34°16' E 134°33'0 0.4
2017-Dec-03 21:30N 34°16' E 134°33'2 3.6
2017-Dec-03 20:53N 34°17' E 134°31'5 9.9
2017-Dec-03 20:25N 34°19' E 134°26'4 9.9
2017-Dec-03 20:00N 34°21' E 134°21'910.2
2017-Dec-03 19:07N 34°24' E 134°11'210.6
2017-Dec-03 18:58N 34°25' E 134°10'7510.4
2017-Dec-03 11:45N 34°05' E 132°42'311.7
2017-Dec-03 11:30N 34°03' E 132°40'2012.1
2017-Dec-03 09:51N 33°50' E 132°22'411.5
2017-Dec-03 09:29N 33°50' E 132°17'1011.1
2017-Dec-03 08:35N 33°46' E 132°05'111.1
2017-Dec-03 08:28N 33°46' E 132°04'910.5
2017-Dec-03 07:36N 33°46' E 131°53'110.5
2017-Dec-03 07:29N 33°46' E 131°52'510.4
2017-Dec-03 07:00N 33°47' E 131°46'510.7
2017-Dec-03 06:30N 33°48' E 131°40'510.7
2017-Dec-03 06:00N 33°49' E 131°33'511.0
2017-Dec-03 05:31N 33°50' E 131°27'611.1
2017-Dec-03 05:01N 33°51' E 131°20'611.5
2017-Dec-03 04:30N 33°53' E 131°13'611.5
2017-Dec-03 04:01N 33°55' E 131°07'510.8
2017-Dec-03 03:30N 33°58' E 131°02'5 9.2
2017-Dec-03 03:01N 33°56' E 130°56'3 6.1
2017-Dec-03 02:31N 33°55' E 130°53'2 4.3
2017-Dec-03 02:01N 33°56' E 130°51'0 0.0
2017-Dec-03 01:31N 33°56' E 130°51'0 0.0
2017-Dec-03 01:01N 33°56' E 130°51'0 0.0
2017-Dec-03 00:30N 33°56' E 130°51'0 0.0
2017-Dec-03 00:00N 33°56' E 130°51'0 0.0
2017-Dec-02 23:30N 33°56' E 130°51'0 0.0
2017-Dec-02 23:01N 33°56' E 130°51'0 0.1
2017-Dec-02 22:31N 33°56' E 130°51'0 0.0
2017-Dec-02 22:01N 33°56' E 130°51'0 0.0
2017-Dec-02 21:31N 33°56' E 130°51'0 0.0
2017-Dec-02 21:01N 33°56' E 130°51'0 0.5
2017-Dec-02 20:30N 33°56' E 130°51'3 6.9
2017-Dec-02 20:01N 33°53' E 130°48'1 1.8
2017-Dec-02 19:31N 33°52' E 130°48'0 0.0
2017-Dec-02 19:01N 33°52' E 130°48'0 0.0
2017-Dec-02 18:30N 33°52' E 130°48'0 0.0
2017-Dec-02 18:01N 33°52' E 130°48'0 0.1
2017-Dec-02 17:31N 33°52' E 130°48'0 0.0
2017-Dec-02 17:00N 33°52' E 130°48'0 0.0
2017-Dec-02 16:31N 33°52' E 130°48'0 0.0
2017-Dec-02 16:01N 33°52' E 130°48'0 0.0
2017-Dec-02 15:30N 33°52' E 130°48'0 0.1
2017-Dec-02 15:00N 33°52' E 130°48'0 0.1
2017-Dec-02 14:30N 33°52' E 130°48'0 0.0
2017-Dec-02 14:00N 33°52' E 130°48'0 0.0
2017-Dec-02 13:31N 33°52' E 130°48'0 0.0
2017-Dec-02 13:00N 33°53' E 130°48'0 0.1
2017-Dec-02 12:31N 33°52' E 130°48'0 0.0
2017-Dec-02 12:00N 33°52' E 130°48'0 0.1
2017-Dec-02 11:30N 33°52' E 130°48'0 0.1
2017-Dec-02 11:01N 33°52' E 130°48'0 0.0
2017-Dec-02 10:31N 33°52' E 130°48'0 0.1
2017-Dec-02 10:01N 33°52' E 130°48'0 0.0
2017-Dec-02 09:30N 33°53' E 130°48'0 0.1
2017-Dec-02 09:01N 33°52' E 130°48'1 1.7
2017-Dec-02 08:31N 33°53' E 130°48'4 8.8
2017-Dec-02 08:00N 33°56' E 130°53'3 6.6
2017-Dec-02 07:30N 33°57' E 130°56'4 8.4
2017-Dec-02 07:01N 33°59' E 131°01'612.1
2017-Dec-02 06:31N 33°56' E 131°08'612.5
2017-Dec-02 06:00N 33°52' E 131°14'612.3
2017-Dec-02 05:31N 33°53' E 131°21'612.1
2017-Dec-02 05:00N 33°54' E 131°28'611.9
2017-Dec-02 04:30N 33°55' E 131°35'611.8
2017-Dec-02 03:59N 33°55' E 131°43'712.0
2017-Dec-02 03:23N 33°59' E 131°50'2 4.3
2017-Dec-02 03:00N 34°00' E 131°52'0 0.0
2017-Dec-02 02:30N 34°00' E 131°52'0 0.0
2017-Dec-02 01:55N 34°00' E 131°52'0 0.0
2017-Dec-02 01:30N 34°00' E 131°52'0 0.0
2017-Dec-02 01:00N 34°00' E 131°52'0 0.0
2017-Dec-02 00:30N 34°00' E 131°52'0 0.0
2017-Dec-02 00:00N 34°00' E 131°52'0 0.0
2017-Dec-01 23:30N 34°00' E 131°52'0 0.0
2017-Dec-01 23:00N 34°00' E 131°52'0 0.6
2017-Dec-01 22:29N 33°60' E 131°52'0 0.0
2017-Dec-01 22:00N 33°60' E 131°52'0 0.0
2017-Dec-01 21:29N 33°60' E 131°52'0 0.0
2017-Dec-01 20:58N 33°60' E 131°52'0 0.1
2017-Dec-01 20:30N 33°60' E 131°52'0 0.1
2017-Dec-01 19:59N 33°60' E 131°52'0 0.0
2017-Dec-01 19:30N 33°60' E 131°52'0 0.0
2017-Dec-01 18:58N 33°60' E 131°52'0 0.0
2017-Dec-01 18:30N 33°60' E 131°52'0 0.0
2017-Dec-01 18:00N 33°60' E 131°52'0 0.1
2017-Dec-01 17:30N 33°60' E 131°52'0 0.1
2017-Dec-01 16:58N 33°60' E 131°52'  
Track history (hours):
 
Tides and Currents Weather Stations Pressure Air Temp Water Temp Dewpoint Dewpoint Depression Visibility Wind Speed Wind Dir Waves Ship Positions

No.1 Daieimaru

Last reported at 2017-Dec-11 16:34 UTC. Time now 2017-Dec-14 16:47 UTC.
Position N 33°53' E 132°05'.

Length 63 m; draft 4.2 m.

MMSI: 431000816.

Date/timePositionNaut miles runAvg speedWind from/ knotsBaromVisibWave heightAir tempDewpointWater temp
2017-Dec-11 16:34N 33°53' E 132°05'0 0.0
2017-Dec-11 14:49N 33°53' E 132°05'0 0.0
2017-Dec-11 14:03N 33°53' E 132°05'0 0.0
2017-Dec-11 13:06N 33°53' E 132°05'0 0.0
2017-Dec-11 12:57N 33°53' E 132°05'0 0.0
2017-Dec-11 09:44N 33°53' E 132°05'0 0.0
2017-Dec-11 09:14N 33°53' E 132°05'0 0.1
2017-Dec-11 08:59N 33°53' E 132°05'0 0.0
2017-Dec-11 08:16N 33°53' E 132°05'0 0.0
2017-Dec-11 07:59N 33°53' E 132°05'0 0.0
2017-Dec-11 07:24N 33°53' E 132°05'0 0.0
2017-Dec-11 06:58N 33°53' E 132°05'0 0.0
2017-Dec-11 06:28N 33°53' E 132°05'0 0.0
2017-Dec-11 05:28N 33°53' E 132°05'0 0.0
2017-Dec-11 05:00N 33°53' E 132°05'0 0.0
2017-Dec-11 04:20N 33°53' E 132°05'0 0.0
2017-Dec-11 03:55N 33°53' E 132°05'0 0.0
2017-Dec-11 03:30N 33°53' E 132°05'0 0.0
2017-Dec-11 02:56N 33°53' E 132°05'0 0.0
2017-Dec-11 02:28N 33°53' E 132°05'0 0.0
2017-Dec-11 01:31N 33°53' E 132°05'0 0.1
2017-Dec-11 01:17N 33°53' E 132°05'0 0.0
2017-Dec-10 23:58N 33°53' E 132°05'0 0.0
2017-Dec-10 23:28N 33°53' E 132°05'0 0.0
2017-Dec-10 22:09N 33°53' E 132°05'0 0.1
2017-Dec-10 21:59N 33°53' E 132°05'0 0.0
2017-Dec-10 21:28N 33°53' E 132°05'0 0.0
2017-Dec-10 20:57N 33°53' E 132°05'0 0.0
2017-Dec-10 20:24N 33°53' E 132°05'0 0.0
2017-Dec-10 19:55N 33°53' E 132°05'0 0.0
2017-Dec-10 19:16N 33°53' E 132°05'0 0.1
2017-Dec-10 18:58N 33°53' E 132°05'0 0.0
2017-Dec-10 18:18N 33°53' E 132°05'0 0.0
2017-Dec-10 18:00N 33°53' E 132°05'0 0.0
2017-Dec-10 17:25N 33°53' E 132°05'0 0.0
2017-Dec-10 16:49N 33°53' E 132°05'0 0.1
2017-Dec-10 16:28N 33°53' E 132°04'0 0.1
2017-Dec-10 15:48N 33°53' E 132°05'0 0.0
2017-Dec-10 15:21N 33°53' E 132°05'0 0.0
2017-Dec-10 14:57N 33°53' E 132°05'0 0.0
2017-Dec-10 14:21N 33°53' E 132°05'0 0.0
2017-Dec-10 14:00N 33°53' E 132°05'0 0.0
2017-Dec-10 13:30N 33°53' E 132°05'0 0.0
2017-Dec-10 12:59N 33°53' E 132°05'0 0.0
2017-Dec-10 12:30N 33°53' E 132°05'0 0.0
2017-Dec-10 12:00N 33°53' E 132°05'0 0.0
2017-Dec-10 11:28N 33°53' E 132°05'0 0.1
2017-Dec-10 10:59N 33°53' E 132°04'0 0.1
2017-Dec-10 10:30N 33°53' E 132°05'6 4.8
2017-Dec-10 09:19N 33°50' E 131°58'410.9
2017-Dec-10 08:56N 33°51' E 131°53'511.1
2017-Dec-10 08:30N 33°51' E 131°47'510.9
2017-Dec-10 08:00N 33°52' E 131°41'611.1
2017-Dec-10 07:30N 33°52' E 131°34'511.1
2017-Dec-10 07:00N 33°52' E 131°28'510.9
2017-Dec-10 06:30N 33°52' E 131°21'510.8
2017-Dec-10 06:00N 33°52' E 131°15'510.5
2017-Dec-10 05:30N 33°54' E 131°09'510.1
2017-Dec-10 05:00N 33°56' E 131°03'4 8.3
2017-Dec-10 04:30N 33°58' E 130°59'4 8.0
2017-Dec-10 04:00N 33°55' E 130°56'4 7.1
2017-Dec-10 03:31N 33°56' E 130°52'3 5.3
2017-Dec-10 03:00N 33°54' E 130°49'0 0.1
2017-Dec-10 02:30N 33°54' E 130°49'0 0.0
2017-Dec-10 02:00N 33°54' E 130°49'0 0.0
2017-Dec-10 01:30N 33°54' E 130°49'0 0.0
2017-Dec-10 01:00N 33°54' E 130°49'0 0.1
2017-Dec-10 00:30N 33°54' E 130°49'0 0.0
2017-Dec-10 00:00N 33°54' E 130°49'0 0.1
2017-Dec-09 23:30N 33°54' E 130°49'0 0.0
2017-Dec-09 23:00N 33°54' E 130°49'0 0.1
2017-Dec-09 22:30N 33°54' E 130°49'2 4.2
2017-Dec-09 22:00N 33°56' E 130°51'0 0.0
2017-Dec-09 21:30N 33°56' E 130°51'0 0.0
2017-Dec-09 21:00N 33°56' E 130°51'0 0.0
2017-Dec-09 20:30N 33°56' E 130°51'0 0.0
2017-Dec-09 20:00N 33°56' E 130°51'0 0.1
2017-Dec-09 19:30N 33°56' E 130°51'0 0.0
2017-Dec-09 19:00N 33°56' E 130°51'0 0.0
2017-Dec-09 18:30N 33°56' E 130°51'0 0.0
2017-Dec-09 18:00N 33°56' E 130°51'0 0.0
2017-Dec-09 17:30N 33°56' E 130°51'0 0.0
2017-Dec-09 17:00N 33°56' E 130°51'0 0.0
2017-Dec-09 16:30N 33°56' E 130°51'0 0.0
2017-Dec-09 16:00N 33°56' E 130°51'0 0.1
2017-Dec-09 15:30N 33°56' E 130°51'1 2.8
2017-Dec-09 15:00N 33°56' E 130°53'4 7.4
2017-Dec-09 14:30N 33°57' E 130°57'5 9.1
2017-Dec-09 14:00N 33°58' E 131°02'612.2
2017-Dec-09 13:30N 33°55' E 131°08'612.1
2017-Dec-09 13:00N 33°52' E 131°15'612.3
2017-Dec-09 12:31N 33°51' E 131°22'612.2
2017-Dec-09 12:00N 33°50' E 131°30'612.3
2017-Dec-09 11:30N 33°49' E 131°37'612.0
2017-Dec-09 11:00N 33°48' E 131°44'611.9
2017-Dec-09 10:30N 33°47' E 131°51'811.9
2017-Dec-09 09:49N 33°46' E 132°01'1112.3
2017-Dec-09 08:55N 33°50' E 132°13'2111.9
2017-Dec-09 07:10N 34°00' E 132°35'211.6
2017-Dec-09 07:00N 34°01' E 132°37'611.6
2017-Dec-09 06:30N 34°05' E 132°42'7110.2
2017-Dec-08 23:31N 34°27' E 134°04'1610.8
2017-Dec-08 22:02N 34°26' E 134°23'011.4
2017-Dec-08 22:00N 34°26' E 134°23'611.4
2017-Dec-08 21:30N 34°28' E 134°30'611.5
2017-Dec-08 21:00N 34°30' E 134°36'611.4
2017-Dec-08 20:30N 34°32' E 134°43'511.0
2017-Dec-08 20:00N 34°34' E 134°49'510.1
2017-Dec-08 19:31N 34°36' E 134°55'510.3
2017-Dec-08 19:00N 34°38' E 135°01'510.3
2017-Dec-08 18:31N 34°36' E 135°06'611.6
2017-Dec-08 18:00N 34°36' E 135°13'612.0
2017-Dec-08 17:31N 34°38' E 135°20'510.4
2017-Dec-08 17:00N 34°38' E 135°27'1 1.1
2017-Dec-08 16:31N 34°38' E 135°27'0 0.0
2017-Dec-08 16:01N 34°38' E 135°27'0 0.0
2017-Dec-08 15:30N 34°38' E 135°27'0 0.0
2017-Dec-08 15:01N 34°38' E 135°27'0 0.0
2017-Dec-08 14:30N 34°38' E 135°27'0 0.0
2017-Dec-08 14:01N 34°38' E 135°27'0 0.0
2017-Dec-08 13:31N 34°38' E 135°27'0 0.0
2017-Dec-08 13:00N 34°38' E 135°27'0 0.6
2017-Dec-08 12:31N 34°38' E 135°27'0 0.0
2017-Dec-08 12:01N 34°38' E 135°27'0 0.0
2017-Dec-08 11:31N 34°38' E 135°27'0 0.0
2017-Dec-08 11:01N 34°38' E 135°27'0 0.1
2017-Dec-08 10:30N 34°38' E 135°27'0 0.0
2017-Dec-08 10:00N 34°38' E 135°27'0 0.0
2017-Dec-08 09:31N 34°38' E 135°27'0 0.0
2017-Dec-08 09:01N 34°38' E 135°27'0 0.0
2017-Dec-08 08:30N 34°38' E 135°27'0 0.0
2017-Dec-08 08:00N 34°38' E 135°27'0 0.0
2017-Dec-08 07:30N 34°38' E 135°27'0 0.0
2017-Dec-08 07:00N 34°38' E 135°27'0 0.0
2017-Dec-08 06:31N 34°38' E 135°27'0 0.0
2017-Dec-08 06:00N 34°38' E 135°27'0 0.0
2017-Dec-08 05:30N 34°38' E 135°27'0 0.0
2017-Dec-08 05:00N 34°38' E 135°27'0 0.1
2017-Dec-08 04:31N 34°38' E 135°27'0 0.1
2017-Dec-08 04:01N 34°38' E 135°27'2 3.1
2017-Dec-08 03:30N 34°39' E 135°25'510.2
2017-Dec-08 03:00N 34°35' E 135°21'511.0
2017-Dec-08 02:30N 34°31' E 135°16'611.2
2017-Dec-08 02:00N 34°27' E 135°12'611.6
2017-Dec-08 01:30N 34°22' E 135°08'611.5
2017-Dec-08 01:00N 34°18' E 135°04'611.0
2017-Dec-08 00:30N 34°12' E 135°03'510.9
2017-Dec-08 00:01N 34°07' E 135°02'510.5
2017-Dec-07 23:30N 34°02' E 135°02'610.4
2017-Dec-07 22:58N 33°56' E 135°02'163 8.5
2017-Dec-07 03:41N 34°34' E 138°14'210.6
2017-Dec-07 03:30N 34°34' E 138°16'710.2
2017-Dec-07 02:47N 34°35' E 138°25'4 9.6
2017-Dec-07 02:23N 34°35' E 138°30'4 9.5
2017-Dec-07 01:58N 34°35' E 138°35'12 9.3
2017-Dec-07 00:42N 34°35' E 138°49'1210.2
2017-Dec-06 23:34N 34°40' E 139°01'110.6
2017-Dec-06 23:30N 34°41' E 139°02'610.4
2017-Dec-06 22:54N 34°46' E 139°06'1710.3
2017-Dec-06 21:13N 34°57' E 139°23'2 9.0
2017-Dec-06 20:58N 34°58' E 139°25'  
2017-Dec-04 02:56N 33°54' E 134°60'511.1
2017-Dec-04 02:30N 33°58' E 134°56'611.1
2017-Dec-04 02:00N 34°02' E 134°52'611.3
2017-Dec-04 01:30N 34°06' E 134°47'811.2
2017-Dec-04 00:49N 34°12' E 134°41'510.8
2017-Dec-04 00:20N 34°16' E 134°37'2 4.1
2017-Dec-03 23:46N 34°15' E 134°34'0 0.2
2017-Dec-03 23:30N 34°15' E 134°34'0 0.4
2017-Dec-03 22:14N 34°15' E 134°33'0 0.4
2017-Dec-03 21:57N 34°16' E 134°33'0 0.4
2017-Dec-03 21:30N 34°16' E 134°33'2 3.6
2017-Dec-03 20:53N 34°17' E 134°31'5 9.9
2017-Dec-03 20:25N 34°19' E 134°26'4 9.9
2017-Dec-03 20:00N 34°21' E 134°21'910.2
2017-Dec-03 19:07N 34°24' E 134°11'210.6
2017-Dec-03 18:58N 34°25' E 134°10'7510.4
2017-Dec-03 11:45N 34°05' E 132°42'311.7
2017-Dec-03 11:30N 34°03' E 132°40'2012.1
2017-Dec-03 09:51N 33°50' E 132°22'411.5
2017-Dec-03 09:29N 33°50' E 132°17'1011.1
2017-Dec-03 08:35N 33°46' E 132°05'111.1
2017-Dec-03 08:28N 33°46' E 132°04'910.5
2017-Dec-03 07:36N 33°46' E 131°53'110.5
2017-Dec-03 07:29N 33°46' E 131°52'510.4
2017-Dec-03 07:00N 33°47' E 131°46'510.7
2017-Dec-03 06:30N 33°48' E 131°40'510.7
2017-Dec-03 06:00N 33°49' E 131°33'511.0
2017-Dec-03 05:31N 33°50' E 131°27'611.1
2017-Dec-03 05:01N 33°51' E 131°20'611.5
2017-Dec-03 04:30N 33°53' E 131°13'611.5
2017-Dec-03 04:01N 33°55' E 131°07'510.8
2017-Dec-03 03:30N 33°58' E 131°02'5 9.2
2017-Dec-03 03:01N 33°56' E 130°56'3 6.1
2017-Dec-03 02:31N 33°55' E 130°53'2 4.3
2017-Dec-03 02:01N 33°56' E 130°51'0 0.0
2017-Dec-03 01:31N 33°56' E 130°51'0 0.0
2017-Dec-03 01:01N 33°56' E 130°51'0 0.0
2017-Dec-03 00:30N 33°56' E 130°51'0 0.0
2017-Dec-03 00:00N 33°56' E 130°51'0 0.0
2017-Dec-02 23:30N 33°56' E 130°51'0 0.0
2017-Dec-02 23:01N 33°56' E 130°51'0 0.1
2017-Dec-02 22:31N 33°56' E 130°51'0 0.0
2017-Dec-02 22:01N 33°56' E 130°51'0 0.0
2017-Dec-02 21:31N 33°56' E 130°51'0 0.0
2017-Dec-02 21:01N 33°56' E 130°51'0 0.5
2017-Dec-02 20:30N 33°56' E 130°51'3 6.9
2017-Dec-02 20:01N 33°53' E 130°48'1 1.8
2017-Dec-02 19:31N 33°52' E 130°48'0 0.0
2017-Dec-02 19:01N 33°52' E 130°48'0 0.0
2017-Dec-02 18:30N 33°52' E 130°48'0 0.0
2017-Dec-02 18:01N 33°52' E 130°48'0 0.1
2017-Dec-02 17:31N 33°52' E 130°48'0 0.0
2017-Dec-02 17:00N 33°52' E 130°48'0 0.0
2017-Dec-02 16:31N 33°52' E 130°48'0 0.0
2017-Dec-02 16:01N 33°52' E 130°48'0 0.0
2017-Dec-02 15:30N 33°52' E 130°48'0 0.1
2017-Dec-02 15:00N 33°52' E 130°48'0 0.1
2017-Dec-02 14:30N 33°52' E 130°48'0 0.0
2017-Dec-02 14:00N 33°52' E 130°48'0 0.0
2017-Dec-02 13:31N 33°52' E 130°48'0 0.0
2017-Dec-02 13:00N 33°53' E 130°48'0 0.1
2017-Dec-02 12:31N 33°52' E 130°48'0 0.0
2017-Dec-02 12:00N 33°52' E 130°48'0 0.1
2017-Dec-02 11:30N 33°52' E 130°48'0 0.1
2017-Dec-02 11:01N 33°52' E 130°48'0 0.0
2017-Dec-02 10:31N 33°52' E 130°48'0 0.1
2017-Dec-02 10:01N 33°52' E 130°48'0 0.0
2017-Dec-02 09:30N 33°53' E 130°48'0 0.1
2017-Dec-02 09:01N 33°52' E 130°48'1 1.7
2017-Dec-02 08:31N 33°53' E 130°48'4 8.8
2017-Dec-02 08:00N 33°56' E 130°53'3 6.6
2017-Dec-02 07:30N 33°57' E 130°56'4 8.4
2017-Dec-02 07:01N 33°59' E 131°01'612.1
2017-Dec-02 06:31N 33°56' E 131°08'612.5
2017-Dec-02 06:00N 33°52' E 131°14'612.3
2017-Dec-02 05:31N 33°53' E 131°21'612.1
2017-Dec-02 05:00N 33°54' E 131°28'611.9
2017-Dec-02 04:30N 33°55' E 131°35'611.8
2017-Dec-02 03:59N 33°55' E 131°43'712.0
2017-Dec-02 03:23N 33°59' E 131°50'2 4.3
2017-Dec-02 03:00N 34°00' E 131°52'0 0.0
2017-Dec-02 02:30N 34°00' E 131°52'0 0.0
2017-Dec-02 01:55N 34°00' E 131°52'0 0.0
2017-Dec-02 01:30N 34°00' E 131°52'0 0.0
2017-Dec-02 01:00N 34°00' E 131°52'0 0.0
2017-Dec-02 00:30N 34°00' E 131°52'0 0.0
2017-Dec-02 00:00N 34°00' E 131°52'0 0.0
2017-Dec-01 23:30N 34°00' E 131°52'0 0.0
2017-Dec-01 23:00N 34°00' E 131°52'0 0.6
2017-Dec-01 22:29N 33°60' E 131°52'0 0.0
2017-Dec-01 22:00N 33°60' E 131°52'0 0.0
2017-Dec-01 21:29N 33°60' E 131°52'0 0.0
2017-Dec-01 20:58N 33°60' E 131°52'0 0.1
2017-Dec-01 20:30N 33°60' E 131°52'0 0.1
2017-Dec-01 19:59N 33°60' E 131°52'0 0.0
2017-Dec-01 19:30N 33°60' E 131°52'0 0.0
2017-Dec-01 18:58N 33°60' E 131°52'0 0.0
2017-Dec-01 18:30N 33°60' E 131°52'0 0.0
2017-Dec-01 18:00N 33°60' E 131°52'0 0.1
2017-Dec-01 17:30N 33°60' E 131°52'0 0.1
2017-Dec-01 16:58N 33°60' E 131°52'  

Dump ship's entire track history